Time;durP1;ratioP1;P1;durP2;ratioP2;P2;SDS_P1;SDS_P2;PMS_P1;PMS_P2;Temp;Humidity;BMP_temperature;BMP_pressure;BME280_temperature;BME280_humidity;BME280_pressure;Samples;Min_cycle;Max_cycle;Signal;HPM_P1;HPM_P2
2022/12/02 00:01:27;;;;;;;3.07;2.77;;;;;;;5.77;89.93;97359.88;5070773;28;20201;-81
2022/12/02 00:03:55;;;;;;;3.13;2.67;;;;;;;5.55;90.11;97349.22;5075607;28;20198;-81
2022/12/02 00:06:29;;;;;;;3.50;2.53;;;;;;;5.75;90.84;97366.75;5067542;28;20306;-80
2022/12/02 00:09:20;;;;;;;3.30;2.50;;;;;;;5.66;90.61;97372.97;5066798;28;20247;-80
2022/12/02 00:11:48;;;;;;;4.10;3.20;;;;;;;5.65;90.07;97365.28;5071720;28;20280;-81
2022/12/02 00:14:28;;;;;;;3.23;2.93;;;;;;;5.66;90.39;97357.56;5077081;28;20203;-81
2022/12/02 00:16:55;;;;;;;3.50;2.63;;;;;;;5.66;90.08;97359.28;5067235;28;20186;-81
2022/12/02 00:19:22;;;;;;;2.87;2.37;;;;;;;5.70;90.67;97384.03;5067355;28;20200;-83
2022/12/02 00:21:50;;;;;;;4.07;3.10;;;;;;;5.61;91.03;97377.34;5070705;28;20293;-81
2022/12/02 00:24:18;;;;;;;3.93;3.20;;;;;;;5.49;90.96;97363.91;5077071;28;20206;-81
2022/12/02 00:26:45;;;;;;;3.80;2.73;;;;;;;5.55;90.66;97367.19;5066614;28;20224;-80
2022/12/02 00:29:12;;;;;;;2.67;2.43;;;;;;;5.62;89.92;97376.47;5066547;28;20597;-81
2022/12/02 00:31:40;;;;;;;3.03;2.60;;;;;;;5.53;90.86;97383.50;5053409;28;20281;-79
2022/12/02 00:34:07;;;;;;;4.67;2.63;;;;;;;5.55;90.44;97389.47;5077176;28;20211;-80
2022/12/02 00:36:34;;;;;;;2.90;2.70;;;;;;;5.40;91.57;97371.81;5048495;28;20272;-79
2022/12/02 00:39:01;;;;;;;3.80;2.90;;;;;;;5.49;90.38;97376.75;5066231;28;20573;-79
2022/12/02 00:41:28;;;;;;;4.03;2.97;;;;;;;5.30;91.20;97378.84;5052874;28;20185;-79
2022/12/02 00:46:40;;;;;;;3.90;2.80;;;;;;;5.41;91.21;97387.19;5086199;28;20204;-80
2022/12/02 00:49:10;;;;;;;3.47;2.97;;;;;;;5.51;90.94;97382.69;5086181;28;20216;-79
2022/12/02 00:51:38;;;;;;;4.17;2.87;;;;;;;5.49;90.67;97371.63;5063089;28;20583;-79
2022/12/02 00:54:07;;;;;;;3.50;3.00;;;;;;;5.64;90.76;97389.28;5059450;28;20217;-80
2022/12/02 00:56:34;;;;;;;3.17;2.70;;;;;;;5.74;91.44;97383.06;5065843;28;20685;-79
2022/12/02 00:59:01;;;;;;;3.20;2.70;;;;;;;5.74;90.54;97376.22;5050781;28;20259;-79
2022/12/02 01:01:29;;;;;;;4.17;3.20;;;;;;;5.76;90.37;97374.47;5055112;28;20205;-79
2022/12/02 01:03:56;;;;;;;2.60;2.40;;;;;;;5.74;91.49;97371.09;5079623;28;20211;-81
2022/12/02 01:06:23;;;;;;;3.30;2.90;;;;;;;5.61;91.72;97379.06;5070203;28;20720;-79
2022/12/02 01:08:50;;;;;;;3.33;3.03;;;;;;;5.74;91.61;97380.50;5069379;28;20309;-79
2022/12/02 01:11:17;;;;;;;3.13;2.60;;;;;;;5.90;91.65;97376.75;5054073;28;20196;-79
2022/12/02 01:13:44;;;;;;;2.83;2.50;;;;;;;5.65;90.85;97340.44;5082476;28;20205;-79
2022/12/02 01:16:14;;;;;;;3.27;2.80;;;;;;;5.58;90.57;97358.59;5069637;28;20213;-80
2022/12/02 01:18:41;;;;;;;3.40;2.77;;;;;;;5.82;90.46;97368.34;5051326;28;20750;-79
2022/12/02 01:21:08;;;;;;;3.10;2.70;;;;;;;5.83;90.73;97371.75;5071795;28;20226;-79
2022/12/02 01:23:35;;;;;;;3.23;2.43;;;;;;;5.81;91.32;97363.22;5078800;28;20309;-79
2022/12/02 01:26:02;;;;;;;3.23;2.73;;;;;;;5.65;90.51;97371.25;5087015;28;20258;-79
2022/12/02 01:28:32;;;;;;;2.63;2.33;;;;;;;5.78;90.70;97370.13;5089908;28;20286;-80
2022/12/02 01:31:00;;;;;;;3.23;2.80;;;;;;;5.88;91.49;97362.22;5086989;28;20866;-80
2022/12/02 01:33:27;;;;;;;2.60;2.33;;;;;;;5.82;90.08;97368.34;5061729;28;20233;-80
2022/12/02 01:35:54;;;;;;;2.40;2.17;;;;;;;5.85;89.41;97368.31;5085268;28;20721;-80
2022/12/02 01:38:21;;;;;;;3.00;2.50;;;;;;;5.79;89.81;97358.09;5089131;28;20710;-79
2022/12/02 01:40:48;;;;;;;2.90;2.40;;;;;;;5.85;89.39;97357.19;5089262;28;20620;-80
2022/12/02 01:43:15;;;;;;;3.00;2.70;;;;;;;5.77;90.15;97358.16;5079180;28;20684;-80
2022/12/02 01:45:42;;;;;;;2.43;2.23;;;;;;;5.69;89.77;97342.06;5074560;28;20702;-81
2022/12/02 01:48:09;;;;;;;3.20;2.37;;;;;;;5.74;90.19;97363.38;5068614;28;20222;-80
2022/12/02 01:50:36;;;;;;;2.97;2.60;;;;;;;5.47;90.41;97332.28;5051504;28;20630;-81
2022/12/02 01:53:03;;;;;;;5.00;3.07;;;;;;;5.66;91.17;97357.56;5059168;28;20222;-81
2022/12/02 01:55:31;;;;;;;4.70;3.00;;;;;;;5.79;91.50;97370.97;5060035;28;20210;-82
2022/12/02 01:57:59;;;;;;;4.20;3.03;;;;;;;5.87;90.40;97356.28;5050920;28;20292;-81
2022/12/02 02:00:27;;;;;;;6.43;4.17;;;;;;;5.58;90.75;97359.44;5051004;28;20196;-81
2022/12/02 02:02:55;;;;;;;4.77;3.77;;;;;;;5.69;90.63;97364.31;5071278;28;20627;-82
2022/12/02 02:05:26;;;;;;;5.63;3.30;;;;;;;5.71;91.62;97367.72;5068914;28;20200;-80
2022/12/02 02:07:57;;;;;;;8.20;3.90;;;;;;;5.48;92.29;97375.06;5051197;28;20853;-80
2022/12/02 02:10:26;;;;;;;5.83;3.60;;;;;;;5.54;91.77;97364.69;5050243;28;20197;-80
2022/12/02 02:12:55;;;;;;;5.17;3.00;;;;;;;5.55;91.60;97361.22;5034708;28;20975;-81
2022/12/02 02:15:23;;;;;;;2.53;2.10;;;;;;;5.57;91.52;97362.03;5068286;28;20223;-80
2022/12/02 02:17:50;;;;;;;3.63;2.20;;;;;;;5.62;91.73;97375.63;5050623;28;20725;-81
2022/12/02 02:20:21;;;;;;;2.87;2.30;;;;;;;5.54;91.81;97349.25;5068489;28;20225;-81
2022/12/02 02:22:48;;;;;;;2.43;2.03;;;;;;;5.56;91.53;97370.63;5050934;28;20199;-81
2022/12/02 02:25:17;;;;;;;2.83;2.20;;;;;;;5.54;91.84;97362.09;5051370;28;20214;-82
2022/12/02 02:27:55;;;;;;;3.03;2.33;;;;;;;5.49;91.03;97371.63;5033330;28;20788;-80
2022/12/02 02:30:25;;;;;;;3.47;2.57;;;;;;;5.32;92.37;97324.88;5051259;28;20204;-81
2022/12/02 02:32:52;;;;;;;4.63;3.23;;;;;;;5.42;92.37;97367.50;5067891;28;20681;-80
2022/12/02 02:35:20;;;;;;;3.00;2.50;;;;;;;5.29;92.77;97350.63;5050260;28;20193;-80
2022/12/02 02:37:50;;;;;;;2.33;2.07;;;;;;;5.43;92.26;97362.31;5050290;28;20199;-81
2022/12/02 02:40:18;;;;;;;2.00;1.80;;;;;;;5.44;91.77;97365.75;5049594;28;20181;-80
2022/12/02 02:42:51;;;;;;;2.13;1.93;;;;;;;5.49;91.06;97362.19;5050115;28;20198;-81
2022/12/02 02:45:24;;;;;;;2.07;1.87;;;;;;;5.42;91.36;97367.50;5049534;28;20205;-82
2022/12/02 02:47:54;;;;;;;2.43;2.20;;;;;;;5.47;92.18;97361.38;5049986;28;20220;-80
2022/12/02 02:50:22;;;;;;;2.13;1.93;;;;;;;5.30;91.63;97342.03;5067785;28;20197;-82
2022/12/02 02:52:50;;;;;;;2.83;2.57;;;;;;;5.39;92.38;97382.94;5049690;28;20579;-80
2022/12/02 02:55:23;;;;;;;3.20;2.57;;;;;;;5.38;92.44;97350.47;5049661;28;20207;-80
2022/12/02 02:57:51;;;;;;;2.60;2.40;;;;;;;5.36;92.32;97367.59;5033252;28;20260;-80
2022/12/02 03:00:20;;;;;;;2.53;2.17;;;;;;;5.27;92.69;97372.94;5081233;28;20726;-80
2022/12/02 03:02:54;;;;;;;2.50;2.03;;;;;;;5.42;92.18;97368.31;5087551;28;20192;-80
2022/12/02 03:05:21;;;;;;;3.37;2.97;;;;;;;5.49;92.41;97361.34;5069453;28;20201;-80
2022/12/02 03:07:50;;;;;;;4.40;2.20;;;;;;;5.31;91.84;97346.31;5069284;28;20224;-80
2022/12/02 03:10:18;;;;;;;2.73;2.10;;;;;;;5.44;93.14;97371.69;5087404;28;20199;-80
2022/12/02 03:12:46;;;;;;;3.13;2.10;;;;;;;5.40;91.71;97369.25;5087382;28;20227;-80
2022/12/02 03:15:13;;;;;;;2.60;2.13;;;;;;;5.31;92.06;97366.84;5087410;28;20597;-80
2022/12/02 03:17:40;;;;;;;3.53;2.93;;;;;;;5.11;93.29;97326.16;5087923;28;20196;-80
2022/12/02 03:20:08;;;;;;;3.90;3.40;;;;;;;5.36;92.34;97347.03;5086631;28;20299;-80
2022/12/02 03:22:35;;;;;;;6.10;3.30;;;;;;;5.46;91.87;97369.94;5087527;28;20201;-80
2022/12/02 03:25:03;;;;;;;5.97;3.60;;;;;;;5.35;92.29;97366.78;5087110;28;20204;-80
2022/12/02 03:27:31;;;;;;;4.57;2.93;;;;;;;5.17;93.31;97361.16;5087190;28;20227;-80
2022/12/02 03:29:58;;;;;;;5.57;3.07;;;;;;;4.97;93.15;97324.78;5087313;28;20295;-79
2022/12/02 03:32:25;;;;;;;9.97;3.47;;;;;;;5.11;94.57;97374.09;5086782;28;20656;-80
2022/12/02 03:34:52;;;;;;;9.17;3.33;;;;;;;5.05;93.59;97366.53;5087436;28;20305;-80
2022/12/02 03:37:21;;;;;;;11.57;3.53;;;;;;;5.15;94.13;97360.34;5086789;28;20203;-80
2022/12/02 03:39:49;;;;;;;3.63;3.17;;;;;;;5.20;93.23;97366.22;5087446;28;20299;-79
2022/12/02 03:42:16;;;;;;;3.47;2.60;;;;;;;4.20;93.50;97206.53;5087678;28;20201;-78
2022/12/02 03:44:43;;;;;;;4.33;3.20;;;;;;;5.32;94.18;97361.69;5087938;28;20250;-79
2022/12/02 03:47:10;;;;;;;6.70;3.53;;;;;;;5.29;93.88;97358.34;5089390;28;20271;-80
2022/12/02 03:49:37;;;;;;;4.60;2.93;;;;;;;5.34;92.51;97367.63;5088039;28;20196;-81
2022/12/02 03:52:05;;;;;;;3.37;2.97;;;;;;;5.34;93.09;97374.47;5088705;28;20206;-81
2022/12/02 03:54:32;;;;;;;4.17;3.20;;;;;;;5.32;92.60;97371.94;5089747;28;20759;-78
2022/12/02 03:56:59;;;;;;;3.93;2.93;;;;;;;5.37;93.37;97359.03;5070768;28;20196;-78
2022/12/02 03:59:27;;;;;;;3.77;3.00;;;;;;;5.40;92.02;97357.22;5086582;28;20888;-81
2022/12/02 04:01:54;;;;;;;3.80;3.10;;;;;;;5.48;91.71;97367.38;5086731;28;20231;-80
2022/12/02 04:04:21;;;;;;;3.30;2.97;;;;;;;5.41;92.30;97345.25;5087110;28;20197;-81
2022/12/02 04:06:48;;;;;;;4.13;2.83;;;;;;;5.42;92.41;97367.50;5087016;28;20200;-81
2022/12/02 04:09:15;;;;;;;4.33;3.27;;;;;;;5.58;91.91;97372.28;5086715;28;20235;-81
2022/12/02 04:11:42;;;;;;;5.10;3.40;;;;;;;5.52;91.33;97369.00;5086299;28;20275;-81
2022/12/02 04:14:09;;;;;;;5.47;4.27;;;;;;;5.43;91.34;97372.59;5087009;28;20197;-81
2022/12/02 04:16:36;;;;;;;5.33;4.07;;;;;;;5.42;91.33;97357.22;5086594;28;20701;-82
2022/12/02 04:19:03;;;;;;;5.03;3.90;;;;;;;5.57;91.32;97375.72;5086885;28;20757;-81
2022/12/02 04:21:30;;;;;;;6.87;4.40;;;;;;;5.49;91.39;97381.88;5086696;28;20279;-81
2022/12/02 04:23:57;;;;;;;8.23;5.07;;;;;;;5.28;92.71;97359.19;5086310;28;20192;-81
2022/12/02 04:26:24;;;;;;;9.80;6.10;;;;;;;5.33;92.20;97386.50;5086899;28;20181;-80
2022/12/02 04:28:50;;;;;;;9.87;6.23;;;;;;;5.38;92.54;97387.22;5086381;28;20246;-81
2022/12/02 04:31:17;;;;;;;9.57;4.80;;;;;;;5.29;91.84;97390.00;5087108;28;20194;-81
2022/12/02 04:33:45;;;;;;;5.87;4.37;;;;;;;5.42;92.92;97382.91;5090162;28;20202;-80
2022/12/02 04:36:13;;;;;;;5.33;3.60;;;;;;;5.49;91.77;97395.59;5087783;28;20184;-80
2022/12/02 04:38:40;;;;;;;5.90;4.30;;;;;;;5.26;91.80;97386.63;5089795;28;20215;-82
2022/12/02 04:41:07;;;;;;;5.87;4.40;;;;;;;5.51;91.97;97404.09;5086098;28;20199;-80
2022/12/02 04:43:35;;;;;;;6.17;4.13;;;;;;;5.53;91.55;97411.78;5089435;28;20605;-81
2022/12/02 04:46:02;;;;;;;6.10;4.00;;;;;;;5.53;90.73;97416.91;5090503;28;20197;-80
2022/12/02 04:48:29;;;;;;;5.30;3.90;;;;;;;5.46;90.83;97417.91;5090788;28;20719;-80
2022/12/02 04:50:56;;;;;;;3.67;2.83;;;;;;;5.38;91.42;97401.81;5090671;28;20194;-81
2022/12/02 04:53:23;;;;;;;7.07;5.70;;;;;;;5.40;91.60;97429.13;5073342;28;20664;-80
2022/12/02 04:55:50;;;;;;;8.07;4.40;;;;;;;5.33;90.39;97426.72;5090702;28;20197;-82
2022/12/02 04:58:17;;;;;;;7.17;5.20;;;;;;;5.32;90.90;97427.59;5090148;28;20231;-81
2022/12/02 05:00:44;;;;;;;7.83;5.83;;;;;;;5.17;90.36;97397.09;5090374;28;20200;-82
2022/12/02 05:03:11;;;;;;;8.03;5.33;;;;;;;5.39;90.65;97426.59;5090306;28;20220;-80
2022/12/02 05:05:38;;;;;;;5.63;4.70;;;;;;;5.18;91.26;97433.00;5089833;28;20569;-81
2022/12/02 05:08:05;;;;;;;5.97;4.40;;;;;;;5.05;91.83;97440.94;5089052;28;20290;-80
2022/12/02 05:10:32;;;;;;;6.00;5.00;;;;;;;5.02;91.91;97448.69;5088710;28;20200;-80
2022/12/02 05:12:59;;;;;;;9.77;7.00;;;;;;;5.07;92.11;97441.78;5069562;28;20193;-84
2022/12/02 05:15:25;;;;;;;10.50;7.27;;;;;;;5.26;92.66;97443.97;5078408;28;20208;-80
2022/12/02 05:17:53;;;;;;;7.73;6.03;;;;;;;5.34;92.01;97446.38;5071656;28;20285;-81
2022/12/02 05:20:20;;;;;;;7.67;4.80;;;;;;;5.08;91.75;97446.00;5088834;28;20706;-80
2022/12/02 05:22:47;;;;;;;8.57;5.97;;;;;;;5.23;91.44;97445.75;5069489;28;20696;-81
2022/12/02 05:25:14;;;;;;;7.60;5.37;;;;;;;4.91;92.90;97418.09;5081608;28;20303;-81
2022/12/02 05:27:41;;;;;;;10.10;6.17;;;;;;;5.06;93.19;97448.63;5089854;28;20197;-81
2022/12/02 05:30:12;;;;;;;11.17;7.70;;;;;;;5.19;92.80;97442.41;5089212;28;20234;-83
2022/12/02 05:32:38;;;;;;;10.17;7.60;;;;;;;5.29;92.93;97438.78;5089913;28;20212;-81
2022/12/02 05:35:06;;;;;;;14.77;8.60;;;;;;;5.41;91.12;97448.81;5070880;28;20209;-82
2022/12/02 05:37:33;;;;;;;13.57;9.90;;;;;;;5.57;91.06;97454.50;5069178;28;20201;-81
2022/12/02 05:40:00;;;;;;;15.30;10.27;;;;;;;5.65;90.92;97450.91;5068861;28;20198;-80
2022/12/02 05:42:28;;;;;;;15.73;9.00;;;;;;;5.69;91.59;97455.09;5069174;28;20206;-81
2022/12/02 05:44:59;;;;;;;10.50;7.97;;;;;;;5.76;90.90;97456.69;5050814;28;20201;-81
2022/12/02 05:47:31;;;;;;;12.87;7.87;;;;;;;5.74;90.75;97457.59;5051321;28;20225;-80
2022/12/02 05:50:00;;;;;;;12.17;8.10;;;;;;;5.72;91.15;97438.78;5070262;28;20313;-80
2022/12/02 05:52:28;;;;;;;12.37;9.00;;;;;;;5.78;89.87;97460.06;5067593;28;20205;-79
2022/12/02 05:54:58;;;;;;;14.13;9.97;;;;;;;5.81;89.36;97459.16;5068824;28;21021;-80
2022/12/02 05:57:29;;;;;;;10.57;8.00;;;;;;;5.72;89.38;97443.94;5050600;28;20621;-81
2022/12/02 06:00:22;;;;;;;15.80;10.17;;;;;;;5.80;89.16;97462.59;5049703;28;21202;-80
2022/12/02 06:02:55;;;;;;;11.27;7.87;;;;;;;5.84;88.55;97469.41;5068639;28;20202;-82
2022/12/02 06:05:24;;;;;;;13.83;9.13;;;;;;;5.85;89.26;97465.97;5068319;28;20308;-81
2022/12/02 06:08:26;;;;;;;17.87;11.63;;;;;;;5.82;89.14;97476.25;5068555;28;20614;-81
2022/12/02 06:11:01;;;;;;;12.93;9.73;;;;;;;5.84;88.33;97473.69;5047814;28;20204;-81
2022/12/02 06:13:31;;;;;;;14.40;10.60;;;;;;;5.76;88.57;97466.97;5068651;28;20298;-81
2022/12/02 06:15:59;;;;;;;11.83;7.67;;;;;;;5.88;88.27;97472.75;5068808;28;20233;-82
2022/12/02 06:18:31;;;;;;;10.47;7.87;;;;;;;5.85;89.09;97470.25;5068081;28;20209;-82
2022/12/02 06:21:14;;;;;;;12.47;8.77;;;;;;;5.66;88.32;97477.44;5050377;28;20198;-81
2022/12/02 06:23:47;;;;;;;11.30;8.70;;;;;;;5.77;88.18;97488.34;5068178;28;20204;-81
2022/12/02 06:26:16;;;;;;;11.47;8.50;;;;;;;5.65;88.21;97465.47;5068020;28;20254;-79
2022/12/02 06:28:46;;;;;;;9.33;6.07;;;;;;;5.46;87.52;97489.84;5050804;28;20228;-81
2022/12/02 06:31:24;;;;;;;8.37;5.90;;;;;;;4.87;89.40;97472.88;5067515;28;20688;-81
2022/12/02 06:33:56;;;;;;;9.73;6.83;;;;;;;4.88;89.16;97483.13;5067983;28;20780;-81
2022/12/02 06:36:28;;;;;;;17.90;9.17;;;;;;;5.11;90.78;97497.31;5067705;28;20197;-81
2022/12/02 06:39:03;;;;;;;15.93;10.13;;;;;;;5.05;90.65;97499.97;5067491;28;20666;-82
2022/12/02 06:41:35;;;;;;;15.13;9.83;;;;;;;5.15;90.22;97491.25;5050203;28;20286;-81
2022/12/02 06:47:35;;;;;;;9.27;6.80;;;;;;;5.14;88.90;97507.50;5050736;28;20201;-85
2022/12/02 06:50:05;;;;;;;7.90;6.20;;;;;;;4.96;90.35;97511.25;5068023;28;20222;-80
2022/12/02 06:52:37;;;;;;;7.70;5.20;;;;;;;5.10;89.94;97509.28;5067231;28;20231;-80
2022/12/02 06:55:28;;;;;;;7.70;5.37;;;;;;;5.29;89.41;97515.81;5069087;28;20730;-81
2022/12/02 06:57:58;;;;;;;5.87;4.13;;;;;;;5.31;88.49;97513.22;5052115;28;20584;-81
2022/12/02 07:00:25;;;;;;;7.30;4.87;;;;;;;5.34;88.33;97500.31;5069340;28;20781;-79
2022/12/02 07:02:52;;;;;;;10.20;6.20;;;;;;;5.50;87.68;97515.41;5067714;28;20672;-82
2022/12/02 07:05:21;;;;;;;14.73;7.33;;;;;;;5.61;87.61;97497.22;5067768;28;20209;-81
2022/12/02 07:07:49;;;;;;;12.07;7.83;;;;;;;5.68;87.11;97520.22;5067912;28;20212;-80
2022/12/02 07:10:24;;;;;;;16.43;10.87;;;;;;;5.36;87.23;97485.72;5067592;28;20217;-82
2022/12/02 07:12:51;;;;;;;16.53;10.77;;;;;;;5.70;86.77;97523.59;5067352;28;20195;-80
2022/12/02 07:15:26;;;;;;;13.50;9.50;;;;;;;5.50;87.73;97512.84;5067152;28;20869;-81
2022/12/02 07:17:57;;;;;;;11.90;7.90;;;;;;;5.52;87.23;97525.69;5067758;28;20854;-82
2022/12/02 07:20:35;;;;;;;14.13;8.20;;;;;;;5.67;87.83;97531.38;5067614;28;20210;-80
2022/12/02 07:23:13;;;;;;;8.90;6.00;;;;;;;5.75;86.52;97531.22;5067083;28;20626;-80
2022/12/02 07:25:46;;;;;;;8.10;6.60;;;;;;;5.78;87.36;97526.88;5068024;28;20206;-80
2022/12/02 07:28:42;;;;;;;6.37;4.60;;;;;;;5.82;85.79;97531.94;5067171;28;20559;-81
2022/12/02 07:31:21;;;;;;;7.43;5.40;;;;;;;5.70;86.94;97508.19;5066927;28;20605;-81
2022/12/02 07:33:48;;;;;;;7.20;4.93;;;;;;;5.90;87.26;97525.81;5067382;28;20198;-82
2022/12/02 07:36:16;;;;;;;10.73;6.77;;;;;;;5.97;86.95;97527.41;5047338;28;20206;-81
2022/12/02 07:38:43;;;;;;;8.40;6.13;;;;;;;5.91;87.03;97518.97;5065778;28;20193;-82
2022/12/02 07:41:32;;;;;;;10.53;7.30;;;;;;;6.00;87.07;97537.59;5047057;28;20670;-80
2022/12/02 07:44:04;;;;;;;13.20;9.40;;;;;;;5.77;87.38;97534.59;5066625;28;20200;-81
2022/12/02 07:46:32;;;;;;;13.63;9.80;;;;;;;5.86;88.49;97543.88;5053089;28;20234;-80
2022/12/02 07:48:59;;;;;;;10.50;8.33;;;;;;;5.70;87.18;97492.78;5067995;28;20676;-81
2022/12/02 07:51:28;;;;;;;10.83;7.50;;;;;;;5.89;87.75;97531.00;5068627;28;20197;-81
2022/12/02 07:53:55;;;;;;;10.87;7.40;;;;;;;6.13;87.73;97539.06;5068242;28;20276;-81
2022/12/02 07:56:23;;;;;;;9.00;6.37;;;;;;;6.07;87.10;97544.31;5066843;28;20260;-80
2022/12/02 07:58:50;;;;;;;10.30;6.77;;;;;;;5.92;88.44;97536.91;5066434;28;20334;-80
2022/12/02 08:01:37;;;;;;;10.10;7.03;;;;;;;5.98;88.03;97528.22;5066974;28;20191;-83
2022/12/02 08:04:04;;;;;;;13.37;8.53;;;;;;;6.08;89.38;97540.03;5066737;28;20259;-82
2022/12/02 08:06:31;;;;;;;13.23;7.40;;;;;;;6.21;89.05;97557.75;5066155;28;20195;-82
2022/12/02 08:09:05;;;;;;;6.87;5.97;;;;;;;6.16;88.53;97533.03;5066012;28;20245;-81
2022/12/02 08:11:33;;;;;;;8.10;6.53;;;;;;;6.30;87.43;97551.56;5065981;28;20198;-82
2022/12/02 08:14:00;;;;;;;12.17;8.43;;;;;;;6.23;88.75;97532.84;5066041;28;20203;-81
2022/12/02 08:16:27;;;;;;;11.93;7.97;;;;;;;6.42;87.45;97557.31;5065896;28;20200;-82
2022/12/02 08:18:54;;;;;;;18.70;8.60;;;;;;;6.15;88.77;97531.31;5065532;28;20614;-83
2022/12/02 08:21:21;;;;;;;13.23;9.13;;;;;;;6.30;88.85;97547.28;5047982;28;20305;-82
2022/12/02 08:23:48;;;;;;;25.83;14.03;;;;;;;6.26;89.35;97550.81;5047593;28;20197;-83
2022/12/02 08:26:15;;;;;;;14.67;9.13;;;;;;;6.12;89.77;97555.34;5066258;28;20273;-83
2022/12/02 08:28:42;;;;;;;15.10;9.97;;;;;;;6.10;90.02;97551.13;5065708;28;20203;-82
2022/12/02 08:31:08;;;;;;;16.43;10.33;;;;;;;6.15;89.66;97545.03;5065923;28;20286;-81
2022/12/02 08:33:35;;;;;;;16.10;10.13;;;;;;;6.09;88.68;97540.00;5047583;28;20228;-81
2022/12/02 08:36:03;;;;;;;19.40;11.13;;;;;;;6.18;89.12;97562.94;5065863;28;20206;-81
2022/12/02 08:38:30;;;;;;;16.67;10.83;;;;;;;6.03;90.39;97549.56;5065681;28;20196;-82
2022/12/02 08:40:57;;;;;;;16.53;10.17;;;;;;;5.97;90.66;97563.38;5065541;28;20214;-82
2022/12/02 08:43:25;;;;;;;15.33;9.23;;;;;;;5.93;90.69;97550.63;5065178;28;20206;-82
2022/12/02 08:45:52;;;;;;;15.40;8.20;;;;;;;6.11;90.45;97551.09;5065552;28;20692;-81
2022/12/02 08:48:20;;;;;;;12.20;8.57;;;;;;;6.22;90.06;97559.44;5066206;28;20197;-81
2022/12/02 08:50:47;;;;;;;9.93;7.70;;;;;;;5.84;91.30;97549.06;5064891;28;20847;-81
2022/12/02 08:53:14;;;;;;;44.03;26.47;;;;;;;5.93;91.56;97556.63;5065068;28;20297;-82
2022/12/02 08:55:41;;;;;;;49.30;31.20;;;;;;;5.89;91.14;97533.56;5047620;28;20204;-82
2022/12/02 08:58:08;;;;;;;28.63;19.43;;;;;;;5.51;91.84;97511.13;5065356;28;20282;-81
2022/12/02 09:00:35;;;;;;;17.20;10.83;;;;;;;5.64;92.44;97544.28;5067454;28;20230;-82
2022/12/02 09:03:08;;;;;;;14.53;10.03;;;;;;;5.91;92.03;97527.53;5067564;28;20210;-81
2022/12/02 09:05:38;;;;;;;15.53;11.73;;;;;;;6.13;91.77;97522.78;5070143;28;20717;-81
2022/12/02 09:08:05;;;;;;;19.07;13.83;;;;;;;6.40;91.15;97528.19;5071773;28;20291;-82
2022/12/02 09:10:32;;;;;;;16.93;13.03;;;;;;;6.61;89.42;97536.31;5033977;28;20237;-82
2022/12/02 09:12:59;;;;;;;17.07;11.43;;;;;;;6.83;89.60;97538.38;5048375;28;20591;-81
2022/12/02 09:15:26;;;;;;;10.57;7.63;;;;;;;6.43;88.92;97522.97;5047430;28;20633;-81
2022/12/02 09:17:53;;;;;;;8.07;6.10;;;;;;;6.57;89.04;97540.69;5065245;28;20232;-83
2022/12/02 09:20:20;;;;;;;8.50;6.20;;;;;;;6.83;89.24;97548.66;5068119;28;20211;-82
2022/12/02 09:22:47;;;;;;;8.60;6.33;;;;;;;6.83;89.62;97524.66;5069162;28;20616;-82
2022/12/02 09:25:14;;;;;;;8.17;4.60;;;;;;;7.07;89.49;97536.94;5069340;28;20199;-84
2022/12/02 09:27:42;;;;;;;7.03;4.93;;;;;;;7.15;87.91;97540.19;5053179;28;20195;-83
2022/12/02 09:30:09;;;;;;;6.53;4.90;;;;;;;7.30;88.96;97547.53;5070217;28;20259;-82
2022/12/02 09:32:36;;;;;;;6.80;5.33;;;;;;;7.32;88.49;97549.19;5079653;28;20272;-82
2022/12/02 09:35:03;;;;;;;7.17;6.00;;;;;;;7.39;88.99;97555.03;5082525;28;20235;-82
2022/12/02 09:37:30;;;;;;;11.37;7.03;;;;;;;7.34;88.87;97536.25;5076918;28;20199;-82
2022/12/02 09:39:58;;;;;;;10.23;6.40;;;;;;;7.02;88.37;97525.91;5074110;28;20199;-81
2022/12/02 09:42:25;;;;;;;6.77;5.47;;;;;;;7.01;88.95;97537.09;5070135;28;20252;-81
2022/12/02 09:44:52;;;;;;;6.63;4.80;;;;;;;7.17;88.84;97546.16;5069789;28;20636;-81
2022/12/02 09:47:22;;;;;;;5.50;4.37;;;;;;;6.92;88.80;97552.75;5069311;28;20236;-82
2022/12/02 09:49:49;;;;;;;5.83;4.57;;;;;;;7.03;88.93;97540.47;5069081;28;20234;-82
2022/12/02 09:52:21;;;;;;;6.57;4.73;;;;;;;6.74;88.55;97492.25;5050707;28;20224;-82
2022/12/02 09:54:57;;;;;;;10.20;8.40;;;;;;;6.92;89.02;97532.16;5068367;28;20197;-80
2022/12/02 09:57:29;;;;;;;12.47;4.93;;;;;;;6.88;88.59;97538.28;5069222;28;20203;-80
2022/12/02 10:00:06;;;;;;;9.23;6.23;;;;;;;7.03;89.84;97550.75;5067700;28;20704;-81
2022/12/02 10:02:39;;;;;;;9.07;5.70;;;;;;;6.49;89.43;97522.84;5050334;28;20535;-80
2022/12/02 10:05:16;;;;;;;10.40;6.47;;;;;;;6.48;90.46;97557.19;5067800;28;20626;-81
2022/12/02 10:07:45;;;;;;;6.07;5.10;;;;;;;6.70;90.65;97552.38;5068290;28;20194;-82
2022/12/02 10:10:15;;;;;;;8.90;6.00;;;;;;;6.74;90.89;97554.00;5050107;28;20615;-81
2022/12/02 10:12:42;;;;;;;9.77;6.57;;;;;;;6.76;90.56;97543.72;5033160;28;20196;-82
2022/12/02 10:15:15;;;;;;;9.90;7.70;;;;;;;6.30;90.83;97497.56;5068415;28;20230;-82
2022/12/02 10:17:44;;;;;;;11.80;9.17;;;;;;;6.41;91.75;97547.03;5067697;28;20215;-82
2022/12/02 10:20:18;;;;;;;11.07;7.13;;;;;;;6.30;91.76;97521.56;5050156;28;20201;-81
2022/12/02 10:23:04;;;;;;;18.47;11.37;;;;;;;6.58;90.95;97527.78;5067883;28;20244;-82
2022/12/02 10:25:31;;;;;;;10.13;8.03;;;;;;;6.39;92.08;97513.63;5067491;28;20203;-81
2022/12/02 10:28:00;;;;;;;13.87;7.97;;;;;;;6.59;91.59;97524.31;5049971;28;20207;-81
2022/12/02 10:30:30;;;;;;;10.83;6.77;;;;;;;6.78;90.88;97535.03;5067010;28;20318;-82
2022/12/02 10:33:02;;;;;;;10.07;6.60;;;;;;;7.07;90.88;97547.22;5067727;28;20196;-83
2022/12/02 10:35:52;;;;;;;7.57;6.77;;;;;;;7.23;89.11;97535.72;5067588;28;20199;-81
2022/12/02 10:38:29;;;;;;;6.93;5.97;;;;;;;7.40;88.79;97542.13;5066717;28;20207;-82
2022/12/02 10:41:24;;;;;;;6.70;5.77;;;;;;;7.23;89.15;97543.44;5067728;28;20199;-83
2022/12/02 10:43:51;;;;;;;8.23;6.10;;;;;;;7.40;89.24;97536.97;5058809;28;20235;-81
2022/12/02 10:46:20;;;;;;;10.90;7.70;;;;;;;6.80;89.70;97437.22;5067089;28;20229;-81
2022/12/02 10:48:48;;;;;;;11.77;9.40;;;;;;;7.46;88.99;97505.03;5067179;28;20223;-82
2022/12/02 10:51:17;;;;;;;13.97;9.93;;;;;;;7.52;89.45;97512.63;5067355;28;20227;-81
2022/12/02 10:53:46;;;;;;;11.73;9.77;;;;;;;7.74;88.74;97526.63;5067514;28;20266;-81
2022/12/02 10:56:19;;;;;;;14.00;10.53;;;;;;;7.80;88.64;97525.59;5067297;28;20197;-81
2022/12/02 10:58:49;;;;;;;12.30;9.27;;;;;;;7.75;89.17;97514.59;5067354;28;20335;-81
2022/12/02 11:01:19;;;;;;;10.63;7.53;;;;;;;7.78;88.90;97532.53;5066960;28;20306;-81
2022/12/02 11:03:48;;;;;;;8.70;6.80;;;;;;;7.76;89.03;97509.38;5067591;28;21021;-81
2022/12/02 11:06:19;;;;;;;8.27;6.10;;;;;;;7.89;88.59;97517.63;5067260;28;20218;-82
2022/12/02 11:08:48;;;;;;;6.50;5.80;;;;;;;7.89;88.45;97517.63;5032441;28;20196;-81
2022/12/02 11:11:24;;;;;;;5.20;4.47;;;;;;;7.64;87.76;97519.19;5066901;28;20801;-82
2022/12/02 11:13:54;;;;;;;6.97;5.27;;;;;;;7.68;88.53;97503.59;5066472;28;20292;-82
2022/12/02 11:16:43;;;;;;;7.70;5.77;;;;;;;7.82;87.88;97521.25;5049132;28;20305;-81
2022/12/02 11:19:39;;;;;;;8.53;5.43;;;;;;;7.72;88.21;97523.25;5048194;28;20205;-82
2022/12/02 11:22:45;;;;;;;10.43;6.30;;;;;;;7.78;88.14;97517.06;5066841;28;20187;-81
2022/12/02 11:25:43;;;;;;;7.73;5.60;;;;;;;7.62;88.00;97519.22;5066914;28;20201;-83
2022/12/02 11:28:28;;;;;;;8.00;5.73;;;;;;;7.56;88.04;97524.56;5066618;28;20193;-82
2022/12/02 11:31:10;;;;;;;10.10;6.10;;;;;;;7.36;88.96;97529.34;5066443;28;20284;-81
2022/12/02 11:34:00;;;;;;;8.47;6.67;;;;;;;7.52;88.90;97533.25;5066744;28;20207;-82
2022/12/02 11:36:34;;;;;;;7.73;5.07;;;;;;;7.30;88.70;97516.63;5066139;28;20231;-82
2022/12/02 11:39:05;;;;;;;10.03;6.07;;;;;;;7.54;89.18;97535.78;5066442;28;20619;-81
2022/12/02 11:41:47;;;;;;;9.47;6.03;;;;;;;7.32;89.92;97538.03;5065911;28;20606;-83
2022/12/02 11:44:23;;;;;;;8.07;6.23;;;;;;;7.31;90.37;97528.63;5066175;28;20681;-82
2022/12/02 11:46:57;;;;;;;9.17;6.23;;;;;;;7.32;89.67;97523.44;5066788;28;20249;-83
2022/12/02 11:49:39;;;;;;;9.30;6.80;;;;;;;7.38;89.98;97525.84;5066213;28;20201;-81
2022/12/02 11:52:08;;;;;;;8.07;6.10;;;;;;;7.57;89.73;97538.25;5066241;28;20250;-82
2022/12/02 11:54:38;;;;;;;8.10;6.37;;;;;;;7.32;91.72;97545.75;5031853;28;20714;-81
2022/12/02 11:57:05;;;;;;;8.80;6.77;;;;;;;7.35;91.16;97540.56;5066403;28;20200;-82
2022/12/02 11:59:35;;;;;;;9.73;6.43;;;;;;;7.46;90.64;97548.84;5066262;28;20231;-82